Time;durP1;ratioP1;P1;durP2;ratioP2;P2;SDS_P1;SDS_P2;PMS_P1;PMS_P2;Temp;Humidity;BMP_temperature;BMP_pressure;BME280_temperature;BME280_humidity;BME280_pressure;Samples;Min_cycle;Max_cycle;Signal;HPM_P1;HPM_P2
2024/01/23 00:00:15;;;;;;;19.10;5.13;;;7.00;1.00;;;;;;5116461;28;20456;-66
2024/01/23 00:02:42;;;;;;;18.37;5.17;;;6.80;1.00;;;;;;5120359;28;20609;-67
2024/01/23 00:05:09;;;;;;;16.27;4.80;;;6.70;1.00;;;;;;5120540;28;20554;-66
2024/01/23 00:07:37;;;;;;;19.23;5.67;;;6.50;99.90;;;;;;5120556;28;20438;-67
2024/01/23 00:10:04;;;;;;;25.03;5.50;;;6.40;99.90;;;;;;5120685;28;20479;-67
2024/01/23 00:12:32;;;;;;;21.13;5.63;;;6.50;99.90;;;;;;5120870;28;20462;-64
2024/01/23 00:15:00;;;;;;;27.63;6.40;;;6.50;99.90;;;;;;5120101;28;20494;-63
2024/01/23 00:17:27;;;;;;;23.20;5.97;;;6.50;98.40;;;;;;5120641;28;20461;-65
2024/01/23 00:19:55;;;;;;;21.63;6.00;;;6.50;1.00;;;;;;5120592;28;20964;-65
2024/01/23 00:22:22;;;;;;;26.27;5.93;;;6.50;1.00;;;;;;5120524;28;20455;-66
2024/01/23 00:24:49;;;;;;;23.40;6.67;;;6.60;1.00;;;;;;5119926;27;20884;-65
2024/01/23 00:27:17;;;;;;;21.80;5.83;;;6.50;99.90;;;;;;5120761;28;20513;-66
2024/01/23 00:29:44;;;;;;;18.97;5.17;;;6.50;99.90;;;;;;5119745;28;20497;-66
2024/01/23 00:32:13;;;;;;;17.87;5.27;;;6.50;99.90;;;;;;5120440;28;20508;-65
2024/01/23 00:34:40;;;;;;;21.53;6.43;;;6.50;1.00;;;;;;5120285;28;20484;-67
2024/01/23 00:37:07;;;;;;;24.77;6.40;;;6.40;99.90;;;;;;5120752;28;20456;-68
2024/01/23 00:39:38;;;;;;;23.60;9.10;;;6.40;1.00;;;;;;5120228;27;20452;-67
2024/01/23 00:42:07;;;;;;;18.03;5.53;;;6.40;99.90;;;;;;5120396;28;20504;-65
2024/01/23 00:44:34;;;;;;;21.60;5.87;;;6.40;1.00;;;;;;5119640;28;20510;-66
2024/01/23 00:47:02;;;;;;;29.37;6.87;;;6.40;14.70;;;;;;5119764;28;20459;-66
2024/01/23 00:49:31;;;;;;;20.70;6.00;;;6.40;99.90;;;;;;5120078;28;21018;-63
2024/01/23 00:51:58;;;;;;;21.17;6.00;;;6.40;1.00;;;;;;5119957;28;20502;-65
2024/01/23 00:54:25;;;;;;;19.63;5.83;;;6.50;1.00;;;;;;5120323;28;20455;-63
2024/01/23 00:56:52;;;;;;;17.90;5.80;;;6.50;1.00;;;;;;5119424;28;20508;-64
2024/01/23 00:59:19;;;;;;;21.50;4.97;;;6.40;1.00;;;;;;5119827;28;20551;-63
2024/01/23 01:01:47;;;;;;;22.83;6.00;;;6.50;1.00;;;;;;5119592;28;20460;-64
2024/01/23 01:04:14;;;;;;;15.67;5.43;;;6.50;99.90;;;;;;5119968;28;20802;-64
2024/01/23 01:06:43;;;;;;;19.00;5.83;;;6.50;1.00;;;;;;5119406;28;20498;-64
2024/01/23 01:09:10;;;;;;;16.47;5.00;;;6.50;99.90;;;;;;5119123;28;20927;-63
2024/01/23 01:11:38;;;;;;;19.10;6.30;;;6.50;99.90;;;;;;5118608;28;20509;-64
2024/01/23 01:14:05;;;;;;;18.70;5.70;;;6.60;99.90;;;;;;5119178;28;20519;-65
2024/01/23 01:16:32;;;;;;;13.80;5.43;;;6.60;99.90;;;;;;5119107;28;20452;-65
2024/01/23 01:19:00;;;;;;;18.53;6.20;;;6.60;1.00;;;;;;5119303;28;20483;-62
2024/01/23 01:21:27;;;;;;;20.97;6.03;;;6.60;1.00;;;;;;5119496;28;20460;-63
2024/01/23 01:23:55;;;;;;;18.77;7.50;;;6.70;99.90;;;;;;5119320;28;20463;-65
2024/01/23 01:26:23;;;;;;;17.37;5.10;;;6.70;1.00;;;;;;5119712;28;20463;-65
2024/01/23 01:28:50;;;;;;;25.13;6.13;;;6.60;99.90;;;;;;5119220;27;20495;-63
2024/01/23 01:31:17;;;;;;;20.20;5.00;;;6.60;1.00;;;;;;5118612;28;20483;-64
2024/01/23 01:33:44;;;;;;;25.87;5.67;;;6.70;1.00;;;;;;5119322;28;20566;-65
2024/01/23 01:36:12;;;;;;;17.00;5.40;;;6.70;1.00;;;;;;5119244;28;20542;-66
2024/01/23 01:38:39;;;;;;;22.20;5.10;;;6.70;1.00;;;;;;5118878;28;20434;-65
2024/01/23 01:41:08;;;;;;;17.07;6.07;;;6.70;99.90;;;;;;5119144;28;20907;-66
2024/01/23 01:43:35;;;;;;;18.13;4.90;;;6.70;1.00;;;;;;5119087;28;20534;-66
2024/01/23 01:46:24;;;;;;;21.13;4.93;;;6.70;1.00;;;;;;5119264;28;20506;-66
2024/01/23 01:48:52;;;;;;;21.73;6.40;;;6.70;99.90;;;;;;5113824;28;20494;-66
2024/01/23 01:51:23;;;;;;;17.87;4.90;;;6.70;1.00;;;;;;5119035;28;20468;-67
2024/01/23 01:53:51;;;;;;;19.20;5.93;;;6.60;1.10;;;;;;5118713;28;20465;-65
2024/01/23 01:56:23;;;;;;;15.43;5.47;;;6.60;40.60;;;;;;5118839;28;20502;-66
2024/01/23 01:58:52;;;;;;;21.87;5.17;;;6.60;1.00;;;;;;5118633;28;20498;-67
2024/01/23 02:01:19;;;;;;;15.37;5.13;;;6.70;1.00;;;;;;5118695;28;20455;-67
2024/01/23 02:03:46;;;;;;;22.13;5.47;;;6.70;1.00;;;;;;5118498;28;20430;-67
2024/01/23 02:06:14;;;;;;;14.20;6.17;;;6.60;1.00;;;;;;5118874;28;20566;-67
2024/01/23 02:08:42;;;;;;;15.90;5.10;;;6.60;99.90;;;;;;5118272;28;20510;-66
2024/01/23 02:11:09;;;;;;;18.63;5.60;;;6.60;1.00;;;;;;5118080;28;20490;-67
2024/01/23 02:13:38;;;;;;;24.73;5.67;;;6.60;99.90;;;;;;5118399;28;20508;-67
2024/01/23 02:16:07;;;;;;;17.03;5.57;;;6.70;99.90;;;;;;5118694;28;20944;-68
2024/01/23 02:18:34;;;;;;;18.27;6.40;;;6.70;99.90;;;;;;5118235;28;20899;-68
2024/01/23 02:21:01;;;;;;;16.57;5.23;;;6.70;99.90;;;;;;5118006;28;20550;-67
2024/01/23 02:23:29;;;;;;;14.30;4.40;;;6.70;99.90;;;;;;5117787;28;20900;-67
2024/01/23 02:25:56;;;;;;;17.87;5.33;;;6.70;99.90;;;;;;5118436;28;20495;-67
2024/01/23 02:28:24;;;;;;;13.30;4.90;;;6.70;99.90;;;;;;5118450;28;20495;-67
2024/01/23 02:30:50;;;;;;;20.80;5.57;;;6.70;99.90;;;;;;5117945;28;20554;-68
2024/01/23 02:33:17;;;;;;;17.87;5.07;;;6.70;99.90;;;;;;5118140;28;20459;-67
2024/01/23 02:35:45;;;;;;;18.73;5.47;;;6.60;99.90;;;;;;5118151;28;20557;-67
2024/01/23 02:38:12;;;;;;;16.97;6.00;;;6.60;99.90;;;;;;5118434;28;20553;-68
2024/01/23 02:40:40;;;;;;;17.73;4.73;;;6.60;99.90;;;;;;5117820;28;20525;-67
2024/01/23 02:43:08;;;;;;;14.50;5.40;;;6.70;98.70;;;;;;5118035;28;20477;-67
2024/01/23 02:45:35;;;;;;;17.53;5.10;;;6.70;99.90;;;;;;5118105;28;20776;-66
2024/01/23 02:48:02;;;;;;;16.03;5.23;;;6.70;1.00;;;;;;5117701;28;20827;-68
2024/01/23 02:50:29;;;;;;;9.67;4.20;;;6.70;1.00;;;;;;5117924;28;20536;-68
2024/01/23 02:52:56;;;;;;;21.00;5.00;;;6.70;8.00;;;;;;5117466;28;20510;-68
2024/01/23 02:55:24;;;;;;;16.80;4.60;;;6.70;11.60;;;;;;5117711;28;20455;-68
2024/01/23 02:57:52;;;;;;;13.07;5.50;;;6.70;1.00;;;;;;5117923;28;20463;-69
2024/01/23 03:00:20;;;;;;;18.20;5.40;;;6.70;1.00;;;;;;5117970;28;20526;-67
2024/01/23 03:02:47;;;;;;;14.67;4.70;;;6.70;1.00;;;;;;5117108;28;20459;-67
2024/01/23 03:05:15;;;;;;;17.20;4.20;;;6.60;1.00;;;;;;5118159;28;20459;-69
2024/01/23 03:07:42;;;;;;;18.17;5.27;;;6.60;1.00;;;;;;5117964;28;20463;-68
2024/01/23 03:10:10;;;;;;;17.47;5.00;;;6.60;1.00;;;;;;5117145;28;20499;-68
2024/01/23 03:12:37;;;;;;;13.30;4.27;;;6.60;99.90;;;;;;5117674;28;20828;-67
2024/01/23 03:15:07;;;;;;;18.17;4.33;;;6.50;1.00;;;;;;5117393;28;20475;-69
2024/01/23 03:17:34;;;;;;;14.63;3.93;;;6.50;1.00;;;;;;5117514;28;20506;-67
2024/01/23 03:20:02;;;;;;;16.47;3.93;;;6.50;1.00;;;;;;5117830;28;20505;-69
2024/01/23 03:22:29;;;;;;;10.47;3.80;;;6.40;1.00;;;;;;5117671;28;20455;-67
2024/01/23 03:24:56;;;;;;;14.00;3.80;;;6.40;1.00;;;;;;5117482;28;20787;-68
2024/01/23 03:27:24;;;;;;;10.80;3.70;;;6.40;1.00;;;;;;5117487;28;20943;-68
2024/01/23 03:29:53;;;;;;;17.30;5.10;;;6.40;1.00;;;;;;5116881;28;20488;-68
2024/01/23 03:32:21;;;;;;;15.50;3.90;;;6.40;1.00;;;;;;5117775;28;20556;-68
2024/01/23 03:34:49;;;;;;;10.73;4.23;;;6.40;1.00;;;;;;5117505;28;20466;-69
2024/01/23 03:37:16;;;;;;;13.07;5.40;;;6.50;1.00;;;;;;5121115;28;20456;-68
2024/01/23 03:39:44;;;;;;;16.80;4.93;;;6.40;1.00;;;;;;5121764;28;20744;-67
2024/01/23 03:42:11;;;;;;;11.40;4.67;;;6.40;1.00;;;;;;5121571;28;20465;-68
2024/01/23 03:44:38;;;;;;;12.53;4.00;;;6.40;1.00;;;;;;5121240;28;20459;-66
2024/01/23 03:47:07;;;;;;;19.30;4.90;;;6.40;1.00;;;;;;5121033;28;20904;-65
2024/01/23 03:49:35;;;;;;;12.80;4.10;;;6.40;1.00;;;;;;5121947;28;20993;-68
2024/01/23 03:52:03;;;;;;;15.10;4.50;;;6.40;56.00;;;;;;5122126;28;20430;-68
2024/01/23 03:54:30;;;;;;;15.53;5.50;;;6.40;1.00;;;;;;5122138;28;20801;-67
2024/01/23 03:56:57;;;;;;;13.20;3.90;;;6.40;72.30;;;;;;5121916;28;20470;-70
2024/01/23 03:59:24;;;;;;;15.00;4.60;;;6.30;63.20;;;;;;5122573;28;20552;-70
2024/01/23 04:01:51;;;;;;;13.10;3.67;;;6.30;50.00;;;;;;5126439;28;20947;-70
2024/01/23 04:04:20;;;;;;;13.90;4.23;;;6.30;6.10;;;;;;5125819;28;20538;-70
2024/01/23 04:06:48;;;;;;;15.30;4.77;;;6.30;1.00;;;;;;5126167;28;20509;-68
2024/01/23 04:09:15;;;;;;;16.20;5.90;;;6.30;1.00;;;;;;5128309;28;20511;-68
2024/01/23 04:11:46;;;;;;;20.23;5.63;;;6.30;1.00;;;;;;5125647;28;20434;-70
2024/01/23 04:14:13;;;;;;;19.77;4.50;;;6.20;94.10;;;;;;5124855;28;20426;-71
2024/01/23 04:16:41;;;;;;;14.33;4.60;;;6.20;19.30;;;;;;5122698;28;20769;-69
2024/01/23 04:19:08;;;;;;;23.20;5.13;;;6.20;99.90;;;;;;5124315;28;20430;-70
2024/01/23 04:21:36;;;;;;;15.53;4.73;;;6.20;69.60;;;;;;5121649;28;20460;-70
2024/01/23 04:24:04;;;;;;;17.87;4.50;;;6.20;95.30;;;;;;5121968;28;20486;-71
2024/01/23 04:26:33;;;;;;;15.50;4.77;;;6.20;49.00;;;;;;5122548;27;20457;-69
2024/01/23 04:29:00;;;;;;;12.70;4.33;;;6.20;98.50;;;;;;5120838;28;20546;-69
2024/01/23 04:31:27;;;;;;;16.17;4.20;;;6.20;83.20;;;;;;5120885;28;20539;-70
2024/01/23 04:33:54;;;;;;;14.63;4.47;;;6.20;99.90;;;;;;5120749;28;20479;-68
2024/01/23 04:36:24;;;;;;;12.83;4.40;;;6.20;99.90;;;;;;5119832;28;20459;-72
2024/01/23 04:38:51;;;;;;;15.47;4.03;;;6.20;96.70;;;;;;5119995;28;20459;-72
2024/01/23 04:41:22;;;;;;;14.93;4.20;;;6.10;99.90;;;;;;5120300;28;20459;-71
2024/01/23 04:43:49;;;;;;;12.47;4.30;;;6.20;99.90;;;;;;5120319;28;20505;-72
2024/01/23 04:46:17;;;;;;;22.57;5.30;;;6.20;99.90;;;;;;5120237;28;20477;-72
2024/01/23 04:48:45;;;;;;;15.97;4.80;;;6.20;99.90;;;;;;5120193;28;20455;-71
2024/01/23 04:51:14;;;;;;;14.13;4.63;;;6.10;99.90;;;;;;5120299;28;21008;-72
2024/01/23 04:53:41;;;;;;;15.27;5.70;;;6.10;99.90;;;;;;5120013;28;20549;-71
2024/01/23 04:56:08;;;;;;;14.60;4.27;;;6.10;99.90;;;;;;5119544;28;20784;-71
2024/01/23 04:58:37;;;;;;;17.27;5.83;;;6.10;99.90;;;;;;5119372;28;20495;-71
2024/01/23 05:01:04;;;;;;;17.63;4.77;;;6.10;99.90;;;;;;5119540;28;20495;-71
2024/01/23 05:03:31;;;;;;;15.90;5.87;;;6.10;99.90;;;;;;5119821;28;20776;-71
2024/01/23 05:05:59;;;;;;;18.53;6.03;;;6.10;99.90;;;;;;5119826;28;20799;-71
2024/01/23 05:08:26;;;;;;;15.87;5.13;;;6.10;99.90;;;;;;5119695;28;20460;-72
2024/01/23 05:10:53;;;;;;;15.83;4.67;;;6.00;99.90;;;;;;5118906;28;20590;-70
2024/01/23 05:13:20;;;;;;;18.60;5.07;;;6.00;99.90;;;;;;5119734;27;20816;-71
2024/01/23 05:15:49;;;;;;;13.30;3.80;;;6.00;99.90;;;;;;5119680;28;20512;-71
2024/01/23 05:18:16;;;;;;;15.47;4.37;;;6.00;99.90;;;;;;5119719;28;20510;-69
2024/01/23 05:20:44;;;;;;;13.93;5.03;;;6.10;99.90;;;;;;5119423;28;20462;-71
2024/01/23 05:23:11;;;;;;;11.87;4.53;;;6.10;99.90;;;;;;5119181;28;20487;-71
2024/01/23 05:25:39;;;;;;;16.40;5.20;;;6.00;99.90;;;;;;5119543;28;20825;-70
2024/01/23 05:28:06;;;;;;;28.27;5.80;;;6.00;99.90;;;;;;5119790;28;20460;-69
2024/01/23 05:30:33;;;;;;;21.37;4.43;;;6.10;99.90;;;;;;5118968;28;20540;-69
2024/01/23 05:33:02;;;;;;;15.50;5.13;;;6.00;99.90;;;;;;5119422;28;20923;-69
2024/01/23 05:35:29;;;;;;;17.07;5.40;;;6.00;99.90;;;;;;5119964;28;20818;-69
2024/01/23 05:37:57;;;;;;;19.53;5.00;;;6.10;99.90;;;;;;5119402;28;20456;-69
2024/01/23 05:40:24;;;;;;;17.23;5.47;;;6.00;99.90;;;;;;5119962;28;20462;-68
2024/01/23 05:42:51;;;;;;;19.40;5.87;;;6.00;99.90;;;;;;5120108;28;20452;-71
2024/01/23 05:45:18;;;;;;;20.43;4.97;;;6.00;99.90;;;;;;5118849;28;20495;-70
2024/01/23 05:47:46;;;;;;;18.77;6.20;;;6.00;99.90;;;;;;5118909;28;20498;-69
2024/01/23 05:50:14;;;;;;;19.90;5.10;;;6.00;99.90;;;;;;5118935;28;20553;-70
2024/01/23 05:52:42;;;;;;;21.27;5.30;;;6.00;99.90;;;;;;5117132;28;20534;-67
2024/01/23 05:55:09;;;;;;;16.97;4.77;;;6.00;1.00;;;;;;5117448;28;20459;-69
2024/01/23 05:57:36;;;;;;;23.90;6.60;;;5.90;1.00;;;;;;5116685;28;20479;-68
2024/01/23 06:00:05;;;;;;;20.47;4.90;;;5.90;1.00;;;;;;5117213;28;20451;-69
2024/01/23 06:02:35;;;;;;;19.37;7.27;;;5.90;1.00;;;;;;5116775;28;20464;-67
2024/01/23 06:05:03;;;;;;;14.70;5.00;;;5.90;99.90;;;;;;5116756;28;20922;-67
2024/01/23 06:07:31;;;;;;;17.50;5.10;;;5.90;1.00;;;;;;5118330;28;20466;-69
2024/01/23 06:09:59;;;;;;;20.30;5.03;;;5.80;1.00;;;;;;5118623;28;20492;-69
2024/01/23 06:12:26;;;;;;;16.93;4.90;;;5.90;1.00;;;;;;5118939;28;20495;-68
2024/01/23 06:14:54;;;;;;;13.47;5.13;;;5.80;1.00;;;;;;5119629;28;20464;-68
2024/01/23 06:17:21;;;;;;;22.17;6.30;;;5.90;1.00;;;;;;5119834;28;20463;-67
2024/01/23 06:19:48;;;;;;;19.37;5.40;;;5.80;1.00;;;;;;5119330;28;20884;-68
2024/01/23 06:22:16;;;;;;;15.63;4.20;;;5.80;1.00;;;;;;5118355;28;20459;-67
2024/01/23 06:25:01;;;;;;;25.27;7.40;;;5.80;1.00;;;;;;5118558;28;20459;-68
2024/01/23 06:27:28;;;;;;;22.10;6.07;;;5.90;1.00;;;;;;5117087;27;20463;-67
2024/01/23 06:29:56;;;;;;;16.63;4.80;;;5.90;1.00;;;;;;5116662;28;20493;-67
2024/01/23 06:32:23;;;;;;;22.57;5.30;;;5.80;1.00;;;;;;5118118;28;20464;-68
2024/01/23 06:34:50;;;;;;;14.90;5.20;;;5.80;1.00;;;;;;5120542;28;20546;-62
2024/01/23 06:37:18;;;;;;;19.80;5.87;;;5.80;1.00;;;;;;5119548;28;20459;-62
2024/01/23 06:39:47;;;;;;;19.43;5.00;;;5.70;1.00;;;;;;5119934;28;20779;-63
2024/01/23 06:42:14;;;;;;;14.10;4.80;;;5.70;1.00;;;;;;5120213;28;20506;-65
2024/01/23 06:44:41;;;;;;;27.30;8.17;;;5.70;1.00;;;;;;5119768;28;20539;-63
2024/01/23 06:47:09;;;;;;;24.30;5.37;;;5.70;1.00;;;;;;5119411;28;20491;-62
2024/01/23 06:49:37;;;;;;;18.77;5.20;;;5.70;1.00;;;;;;5117485;28;20935;-62
2024/01/23 06:52:04;;;;;;;18.40;5.47;;;5.60;1.00;;;;;;5117222;28;20459;-63
2024/01/23 06:54:32;;;;;;;16.17;4.90;;;5.60;1.00;;;;;;5117082;28;20455;-63
2024/01/23 06:57:00;;;;;;;20.40;5.13;;;5.60;26.00;;;;;;5116638;28;20811;-62
2024/01/23 06:59:28;;;;;;;16.20;5.77;;;5.60;83.30;;;;;;5116873;28;20697;-69
2024/01/23 07:01:55;;;;;;;16.87;6.10;;;5.60;99.90;;;;;;5118000;28;20682;-62
2024/01/23 07:04:22;;;;;;;18.27;5.83;;;5.60;99.90;;;;;;5117862;28;20788;-63
2024/01/23 07:06:50;;;;;;;18.50;5.13;;;5.60;99.90;;;;;;5119394;28;20418;-62
2024/01/23 07:09:17;;;;;;;16.37;4.50;;;5.60;99.90;;;;;;5118889;28;20833;-62
2024/01/23 07:11:44;;;;;;;16.53;4.93;;;5.60;99.90;;;;;;5124230;27;20491;-63
2024/01/23 07:14:13;;;;;;;18.00;5.47;;;5.60;99.90;;;;;;5124614;28;20505;-68
2024/01/23 07:16:40;;;;;;;26.40;6.30;;;5.50;96.70;;;;;;5123753;27;20455;-63
2024/01/23 07:19:08;;;;;;;10.83;4.50;;;5.50;99.90;;;;;;5123551;28;20455;-64
2024/01/23 07:21:35;;;;;;;13.70;4.73;;;5.50;1.00;;;;;;5121304;28;20447;-61
2024/01/23 07:24:02;;;;;;;15.20;4.60;;;5.50;99.90;;;;;;5122856;28;20881;-63
2024/01/23 07:26:29;;;;;;;21.27;5.60;;;5.50;99.90;;;;;;5122149;28;20491;-63
2024/01/23 07:28:57;;;;;;;14.10;5.47;;;5.50;65.10;;;;;;5123871;28;20966;-63
2024/01/23 07:31:25;;;;;;;18.73;5.70;;;5.50;99.90;;;;;;5117078;28;20492;-63
2024/01/23 07:33:53;;;;;;;17.10;4.30;;;5.50;99.90;;;;;;5102039;28;20456;-64
2024/01/23 07:36:21;;;;;;;18.57;4.53;;;5.50;99.90;;;;;;5102712;28;20881;-63
2024/01/23 07:38:48;;;;;;;23.93;6.63;;;5.40;99.90;;;;;;5102336;28;20886;-63
2024/01/23 07:41:16;;;;;;;26.80;5.70;;;5.50;99.90;;;;;;5101978;28;20463;-63
2024/01/23 07:43:44;;;;;;;19.33;5.60;;;5.50;1.00;;;;;;5101669;28;20460;-63
2024/01/23 07:46:12;;;;;;;18.47;4.50;;;5.50;99.90;;;;;;5100769;28;20460;-63
2024/01/23 07:48:41;;;;;;;15.80;4.93;;;5.50;1.00;;;;;;5101924;28;20759;-63
2024/01/23 07:51:08;;;;;;;19.80;5.27;;;5.50;99.90;;;;;;5103155;28;20512;-64
2024/01/23 07:53:36;;;;;;;15.70;4.50;;;5.50;99.90;;;;;;5104062;28;20520;-63
2024/01/23 07:56:03;;;;;;;15.10;4.90;;;5.50;99.90;;;;;;5103299;28;20464;-63
2024/01/23 07:58:30;;;;;;;17.13;6.80;;;5.50;99.90;;;;;;5105543;28;20464;-64
2024/01/23 08:00:58;;;;;;;13.23;4.70;;;5.50;99.90;;;;;;5121690;28;20933;-63
2024/01/23 08:03:25;;;;;;;16.87;4.77;;;5.50;99.90;;;;;;5120793;28;20513;-63
2024/01/23 08:05:54;;;;;;;17.77;5.93;;;5.50;99.90;;;;;;5122530;28;20946;-63
2024/01/23 08:08:23;;;;;;;19.33;5.43;;;5.50;99.90;;;;;;5121947;28;20486;-64
2024/01/23 08:10:51;;;;;;;14.07;5.53;;;5.40;99.90;;;;;;5121318;28;20942;-63
2024/01/23 08:13:22;;;;;;;12.60;4.70;;;5.40;99.90;;;;;;5121151;28;20953;-62
2024/01/23 08:15:49;;;;;;;24.00;5.73;;;5.40;99.90;;;;;;5122459;28;20451;-63
2024/01/23 08:18:18;;;;;;;17.10;5.50;;;5.40;1.00;;;;;;5123629;28;20456;-63
2024/01/23 08:20:45;;;;;;;15.20;5.40;;;5.50;21.10;;;;;;5122133;28;20451;-63
2024/01/23 08:23:14;;;;;;;13.40;4.80;;;5.50;1.00;;;;;;5121624;28;20429;-63
2024/01/23 08:25:45;;;;;;;21.00;5.33;;;5.50;99.90;;;;;;5122034;28;20459;-63
2024/01/23 08:28:12;;;;;;;20.70;7.17;;;5.40;1.00;;;;;;5121920;28;20463;-63
2024/01/23 08:30:40;;;;;;;13.67;5.03;;;5.50;99.90;;;;;;5121779;28;20819;-63
2024/01/23 08:33:08;;;;;;;14.63;4.83;;;5.50;10.60;;;;;;5122936;28;20892;-63
2024/01/23 08:35:37;;;;;;;22.13;5.50;;;5.50;99.90;;;;;;5124342;28;20463;-66
2024/01/23 08:38:04;;;;;;;16.97;5.03;;;5.50;1.00;;;;;;5123160;27;20455;-63
2024/01/23 08:40:33;;;;;;;18.63;4.63;;;5.60;99.90;;;;;;5123162;28;20452;-63
2024/01/23 08:43:01;;;;;;;18.60;5.90;;;5.50;99.90;;;;;;5122336;28;20455;-63
2024/01/23 08:45:28;;;;;;;16.03;4.60;;;5.60;99.90;;;;;;5123397;28;20456;-65
2024/01/23 08:47:55;;;;;;;17.77;5.30;;;5.70;99.90;;;;;;5122941;28;20467;-63
2024/01/23 08:50:23;;;;;;;22.23;6.37;;;5.80;99.90;;;;;;5121985;27;20452;-63
2024/01/23 08:52:50;;;;;;;19.10;5.40;;;5.80;99.90;;;;;;5121760;27;20470;-63
2024/01/23 08:55:17;;;;;;;21.00;5.97;;;6.00;94.10;;;;;;5122191;28;20462;-63
2024/01/23 08:57:46;;;;;;;21.23;5.80;;;6.00;1.10;;;;;;5122680;27;20508;-63
2024/01/23 09:00:15;;;;;;;18.60;5.50;;;6.00;1.00;;;;;;5123889;28;20895;-63
2024/01/23 09:02:42;;;;;;;13.63;4.83;;;6.00;1.00;;;;;;5122437;28;20463;-63
2024/01/23 09:05:10;;;;;;;18.33;6.27;;;6.10;99.90;;;;;;5122780;28;20517;-63
2024/01/23 09:07:37;;;;;;;16.57;6.03;;;6.00;1.00;;;;;;5122839;28;20462;-63
2024/01/23 09:10:06;;;;;;;12.60;5.13;;;6.10;53.70;;;;;;5122237;28;20483;-63
2024/01/23 09:12:33;;;;;;;23.30;6.00;;;6.10;99.90;;;;;;5121886;28;20492;-63
2024/01/23 09:15:03;;;;;;;17.50;6.13;;;6.20;1.00;;;;;;5120759;28;20455;-63
2024/01/23 09:17:30;;;;;;;26.87;5.27;;;6.30;99.90;;;;;;5120893;28;20733;-63
2024/01/23 09:19:58;;;;;;;15.00;4.80;;;6.50;99.90;;;;;;5121502;28;20505;-63
2024/01/23 09:22:25;;;;;;;17.70;5.73;;;6.50;1.00;;;;;;5120921;28;20877;-63
2024/01/23 09:24:54;;;;;;;19.33;6.70;;;6.40;99.90;;;;;;5121300;28;20459;-63
2024/01/23 09:27:21;;;;;;;21.03;5.40;;;6.40;99.90;;;;;;5121333;28;20505;-63
2024/01/23 09:29:49;;;;;;;24.93;5.70;;;6.50;1.00;;;;;;5120886;28;20456;-63
2024/01/23 09:32:18;;;;;;;15.77;5.67;;;6.60;1.00;;;;;;5119461;28;20491;-63
2024/01/23 09:34:47;;;;;;;19.03;6.70;;;6.80;1.00;;;;;;5120789;28;20534;-63
2024/01/23 09:37:15;;;;;;;16.40;5.30;;;6.80;1.00;;;;;;5121125;28;20435;-63
2024/01/23 09:39:43;;;;;;;15.00;4.50;;;6.80;1.00;;;;;;5120593;28;20506;-63
2024/01/23 09:42:11;;;;;;;18.60;5.13;;;7.00;1.00;;;;;;5120771;28;20523;-63
2024/01/23 09:44:40;;;;;;;17.27;5.07;;;7.10;99.90;;;;;;5120339;28;20456;-63
2024/01/23 09:47:10;;;;;;;12.50;4.90;;;7.20;1.00;;;;;;5119940;28;20639;-63
2024/01/23 09:49:39;;;;;;;27.77;6.10;;;7.30;99.90;;;;;;5119919;28;20460;-63
2024/01/23 09:52:08;;;;;;;11.80;4.13;;;7.30;99.90;;;;;;5118968;28;20552;-64
2024/01/23 09:54:36;;;;;;;17.10;5.10;;;7.30;99.90;;;;;;5119501;28;20463;-66
2024/01/23 09:57:03;;;;;;;12.27;4.60;;;7.10;99.90;;;;;;5119066;28;20481;-63
2024/01/23 09:59:31;;;;;;;16.23;4.60;;;7.10;99.90;;;;;;5118997;28;20466;-63
2024/01/23 10:01:59;;;;;;;13.00;4.90;;;7.30;99.90;;;;;;5120331;28;20452;-65
2024/01/23 10:04:29;;;;;;;17.43;4.93;;;7.10;99.90;;;;;;5119271;28;20829;-63
2024/01/23 10:06:57;;;;;;;16.80;6.10;;;7.20;99.90;;;;;;5119245;28;20434;-63
2024/01/23 10:09:25;;;;;;;17.83;5.20;;;7.10;99.90;;;;;;5128383;27;20483;-63
2024/01/23 10:11:57;;;;;;;16.90;5.63;;;7.00;99.90;;;;;;5138393;27;20493;-63
2024/01/23 10:14:26;;;;;;;19.20;5.40;;;7.10;99.90;;;;;;5137043;27;20446;-64
2024/01/23 10:16:56;;;;;;;20.13;6.50;;;7.30;99.90;;;;;;5110992;28;20484;-66
2024/01/23 10:19:23;;;;;;;21.27;5.70;;;7.30;99.90;;;;;;5118646;28;20483;-63
2024/01/23 10:21:54;;;;;;;10.10;5.50;;;7.30;99.90;;;;;;5120652;28;20462;-64
2024/01/23 10:24:23;;;;;;;17.90;6.10;;;7.30;99.90;;;;;;5120910;28;20825;-63
2024/01/23 10:26:50;;;;;;;17.50;5.40;;;7.40;99.90;;;;;;5120476;28;20455;-64
2024/01/23 10:29:18;;;;;;;20.87;6.97;;;7.40;1.00;;;;;;5120091;28;20459;-69
2024/01/23 10:31:47;;;;;;;14.17;5.23;;;7.50;99.90;;;;;;5119656;28;20566;-63
2024/01/23 10:34:15;;;;;;;14.13;5.03;;;7.60;99.90;;;;;;5118766;28;20766;-64
2024/01/23 10:36:43;;;;;;;24.93;6.90;;;7.50;99.90;;;;;;5118628;28;20516;-63
2024/01/23 10:39:11;;;;;;;13.87;5.17;;;7.40;99.90;;;;;;5118334;28;20455;-64
2024/01/23 10:41:44;;;;;;;22.37;6.70;;;7.40;99.90;;;;;;5119199;28;20558;-63
2024/01/23 10:44:14;;;;;;;18.30;5.80;;;7.30;99.90;;;;;;5116900;28;20537;-63
2024/01/23 10:46:43;;;;;;;23.33;6.10;;;7.40;99.90;;;;;;5118292;28;20794;-67
2024/01/23 10:49:10;;;;;;;22.60;5.47;;;7.50;99.90;;;;;;5117787;28;20460;-64
2024/01/23 10:51:38;;;;;;;19.00;5.60;;;7.60;99.90;;;;;;5118032;28;20824;-63
2024/01/23 10:54:10;;;;;;;15.57;5.20;;;7.70;99.90;;;;;;5118379;28;20900;-63
2024/01/23 10:56:45;;;;;;;24.87;6.27;;;7.60;99.90;;;;;;5118882;28;20466;-66
2024/01/23 10:59:18;;;;;;;15.53;6.00;;;7.50;1.00;;;;;;5118082;28;20501;-63
2024/01/23 11:01:46;;;;;;;16.17;5.60;;;7.50;99.90;;;;;;5118101;28;20927;-64
2024/01/23 11:04:15;;;;;;;22.43;6.00;;;7.60;1.00;;;;;;5116322;28;20459;-63
2024/01/23 11:06:50;;;;;;;20.60;6.60;;;7.70;1.00;;;;;;5116835;28;20456;-65
2024/01/23 11:09:24;;;;;;;19.60;5.77;;;7.70;99.90;;;;;;5115049;28;20682;-63
2024/01/23 11:12:03;;;;;;;19.47;5.83;;;7.80;1.00;;;;;;5115425;28;20931;-64
2024/01/23 11:14:38;;;;;;;17.53;5.30;;;7.90;99.90;;;;;;5116385;28;20512;-63
2024/01/23 11:17:09;;;;;;;23.87;6.50;;;7.90;99.90;;;;;;5117651;28;20929;-65
2024/01/23 11:19:40;;;;;;;25.70;6.83;;;8.10;99.90;;;;;;5118283;28;20799;-64
2024/01/23 11:22:08;;;;;;;22.13;5.70;;;8.30;99.90;;;;;;5119603;28;20452;-64
2024/01/23 11:24:43;;;;;;;18.90;7.80;;;8.40;99.90;;;;;;5119639;28;20460;-64
2024/01/23 11:27:20;;;;;;;17.43;6.97;;;8.70;94.40;;;;;;5120928;28;20459;-66
2024/01/23 11:29:49;;;;;;;12.53;4.80;;;9.00;99.60;;;;;;5120114;28;20455;-64
2024/01/23 11:32:23;;;;;;;25.40;7.63;;;9.30;93.00;;;;;;5121073;28;20963;-63
2024/01/23 11:35:00;;;;;;;16.33;6.07;;;9.10;47.10;;;;;;5120402;28;20460;-63
2024/01/23 11:37:45;;;;;;;19.07;5.93;;;9.30;21.40;;;;;;5120219;28;20465;-64
2024/01/23 11:40:33;;;;;;;17.87;5.17;;;9.30;63.60;;;;;;5119633;28;20466;-65
2024/01/23 11:43:03;;;;;;;17.50;5.10;;;9.00;1.00;;;;;;5120890;28;20546;-64
2024/01/23 11:45:32;;;;;;;16.97;5.17;;;9.00;21.20;;;;;;5120714;28;20463;-66
2024/01/23 11:48:00;;;;;;;22.03;6.00;;;8.90;40.70;;;;;;5120607;28;20735;-64
2024/01/23 11:50:29;;;;;;;20.73;5.53;;;8.80;1.00;;;;;;5120354;28;20459;-64
2024/01/23 11:52:59;;;;;;;17.57;6.87;;;9.00;92.20;;;;;;5121766;28;20515;-64
2024/01/23 11:55:27;;;;;;;20.60;6.43;;;9.10;10.30;;;;;;5121256;28;20459;-65
2024/01/23 11:57:55;;;;;;;28.60;6.40;;;9.00;1.00;;;;;;5123663;28;20455;-65
2024/01/23 12:00:25;;;;;;;24.23;5.63;;;9.20;27.70;;;;;;5124636;28;20487;-64
2024/01/23 12:02:53;;;;;;;24.97;5.60;;;9.20;1.00;;;;;;5124461;28;20451;-66
2024/01/23 12:05:20;;;;;;;16.60;5.40;;;9.10;1.00;;;;;;5117013;28;20470;-64
2024/01/23 12:07:48;;;;;;;17.70;5.70;;;9.10;1.00;;;;;;5101493;28;20460;-65
2024/01/23 12:10:18;;;;;;;15.50;5.50;;;9.10;99.90;;;;;;5101617;28;20529;-65
2024/01/23 12:12:46;;;;;;;21.27;6.20;;;9.20;99.90;;;;;;5099065;28;20492;-64
2024/01/23 12:15:13;;;;;;;14.87;6.27;;;9.30;99.90;;;;;;5098813;28;20509;-64
2024/01/23 12:17:50;;;;;;;21.77;5.90;;;9.30;99.90;;;;;;5099238;28;20463;-63
2024/01/23 12:20:17;;;;;;;15.33;5.10;;;9.40;99.90;;;;;;5099908;28;20517;-64
2024/01/23 12:22:45;;;;;;;15.37;5.20;;;9.30;99.90;;;;;;5099404;28;20460;-62
2024/01/23 12:25:13;;;;;;;17.23;5.27;;;9.10;99.90;;;;;;5098253;28;20559;-64
2024/01/23 12:27:43;;;;;;;17.97;4.77;;;8.90;99.90;;;;;;5099170;28;20575;-64
2024/01/23 12:30:13;;;;;;;16.80;4.93;;;8.70;99.90;;;;;;5114556;28;20490;-65
2024/01/23 12:32:41;;;;;;;24.80;6.17;;;8.40;99.90;;;;;;5118766;28;20515;-64
2024/01/23 12:35:11;;;;;;;25.63;7.10;;;8.30;99.90;;;;;;5118396;28;20561;-67
2024/01/23 12:37:40;;;;;;;15.63;5.00;;;8.30;99.90;;;;;;5121125;28;20494;-64
2024/01/23 12:40:10;;;;;;;21.37;6.47;;;8.40;99.90;;;;;;5119884;28;21011;-63
2024/01/23 12:42:40;;;;;;;15.67;5.33;;;8.60;99.90;;;;;;5119633;28;20448;-64
2024/01/23 12:45:11;;;;;;;17.43;5.30;;;8.80;99.90;;;;;;5120055;28;20463;-65
2024/01/23 12:47:38;;;;;;;12.37;4.80;;;9.10;99.90;;;;;;5120462;28;20467;-64
2024/01/23 12:50:07;;;;;;;19.17;6.63;;;9.00;99.90;;;;;;5120035;28;20452;-64
2024/01/23 12:52:36;;;;;;;15.77;5.20;;;8.80;99.90;;;;;;5118100;27;20483;-64
2024/01/23 12:55:04;;;;;;;11.33;4.47;;;8.70;89.90;;;;;;5118797;28;20451;-65